Time;durP1;ratioP1;P1;durP2;ratioP2;P2;SDS_P1;SDS_P2;PMS_P1;PMS_P2;Temp;Humidity;BMP_temperature;BMP_pressure;BME280_temperature;BME280_humidity;BME280_pressure;Samples;Min_cycle;Max_cycle;Signal;HPM_P1;HPM_P2
2023/12/06 00:02:10;;;;;;;146.83;43.37;;;3.60;1.00;;;;;;6344588;22;20148;-85
2023/12/06 00:04:36;;;;;;;157.00;46.17;;;3.60;1.00;;;;;;6342323;22;20162;-83
2023/12/06 00:07:01;;;;;;;146.63;44.30;;;3.60;1.00;;;;;;6344244;22;20179;-84
2023/12/06 00:09:27;;;;;;;161.87;47.20;;;3.50;1.00;;;;;;6343589;22;20190;-85
2023/12/06 00:11:52;;;;;;;136.10;43.47;;;3.50;1.00;;;;;;6344471;22;20163;-84
2023/12/06 00:14:18;;;;;;;135.07;47.27;;;3.60;4.30;;;;;;6345521;22;20154;-85
2023/12/06 00:16:43;;;;;;;144.03;47.63;;;3.60;1.00;;;;;;6343560;22;20212;-85
2023/12/06 00:19:09;;;;;;;166.80;47.47;;;3.50;1.00;;;;;;6347158;22;20707;-86
2023/12/06 00:21:34;;;;;;;158.00;46.20;;;3.50;1.00;;;;;;6373814;22;20150;-86
2023/12/06 00:24:00;;;;;;;145.27;47.00;;;3.60;1.00;;;;;;6374101;22;20143;-86
2023/12/06 00:26:25;;;;;;;162.90;52.03;;;3.50;1.00;;;;;;6374636;22;20143;-83
2023/12/06 00:28:53;;;;;;;159.57;54.43;;;3.50;1.00;;;;;;6377942;22;20633;-85
2023/12/06 00:31:18;;;;;;;162.38;51.67;;;3.50;1.00;;;;;;6376418;22;20151;-86
2023/12/06 00:33:44;;;;;;;178.77;52.90;;;3.50;1.00;;;;;;6349675;22;20176;-84
2023/12/06 00:36:10;;;;;;;156.90;53.70;;;3.50;1.00;;;;;;6376668;22;20161;-87
2023/12/06 00:38:35;;;;;;;160.83;53.47;;;3.40;1.00;;;;;;6377246;22;20724;-86
2023/12/06 00:41:01;;;;;;;178.67;54.30;;;3.40;1.00;;;;;;6378645;22;20383;-85
2023/12/06 00:43:27;;;;;;;165.37;57.90;;;3.40;1.00;;;;;;6378568;22;20198;-86
2023/12/06 00:45:53;;;;;;;191.20;55.40;;;3.40;1.00;;;;;;6349944;22;20246;-85
2023/12/06 00:48:19;;;;;;;181.10;52.88;;;3.40;1.00;;;;;;6378093;22;20167;-85
2023/12/06 00:50:44;;;;;;;182.60;54.40;;;3.30;1.00;;;;;;6379337;22;20147;-86
2023/12/06 00:53:10;;;;;;;181.13;50.73;;;3.30;1.00;;;;;;6348500;22;20646;-84
2023/12/06 00:55:35;;;;;;;168.60;52.50;;;3.40;1.00;;;;;;6377727;22;20146;-85
2023/12/06 00:58:01;;;;;;;175.63;51.40;;;3.40;1.00;;;;;;6352076;22;20175;-86
2023/12/06 01:00:27;;;;;;;168.03;55.90;;;3.30;1.00;;;;;;6378839;22;20169;-85
2023/12/06 01:02:52;;;;;;;164.05;55.92;;;3.30;1.00;;;;;;6379484;22;20143;-85
2023/12/06 01:05:18;;;;;;;172.23;58.63;;;3.30;1.00;;;;;;6380196;22;20150;-86
2023/12/06 01:07:44;;;;;;;185.20;57.20;;;3.20;1.00;;;;;;6350612;22;20743;-86
2023/12/06 01:10:10;;;;;;;167.27;56.70;;;3.20;1.00;;;;;;6378940;22;20169;-86
2023/12/06 01:12:35;;;;;;;155.10;57.03;;;3.20;1.00;;;;;;6350307;22;20180;-86
2023/12/06 01:15:03;;;;;;;163.70;52.33;;;3.10;1.00;;;;;;6379097;22;20146;-84
2023/12/06 01:17:28;;;;;;;147.00;58.70;;;3.20;1.00;;;;;;6380216;22;20166;-86
2023/12/06 01:19:54;;;;;;;175.90;53.37;;;3.10;1.00;;;;;;6379632;22;20183;-86
2023/12/06 01:22:19;;;;;;;148.30;53.00;;;3.10;1.00;;;;;;6379536;22;20704;-85
2023/12/06 01:24:47;;;;;;;141.63;52.60;;;3.10;1.00;;;;;;6352299;22;20629;-85
2023/12/06 01:27:12;;;;;;;164.98;54.75;;;3.10;1.00;;;;;;6379743;22;20146;-84
2023/12/06 01:29:38;;;;;;;156.30;53.27;;;3.20;1.00;;;;;;6380452;22;20494;-86
2023/12/06 01:32:04;;;;;;;154.83;52.43;;;3.10;1.00;;;;;;6352763;22;20170;-86
2023/12/06 01:34:29;;;;;;;141.90;55.77;;;3.20;1.00;;;;;;6379534;22;20150;-86
2023/12/06 01:36:55;;;;;;;143.20;52.27;;;3.20;1.00;;;;;;6380710;22;20456;-86
2023/12/06 01:39:20;;;;;;;142.00;53.47;;;3.20;1.00;;;;;;6352305;22;20660;-86
2023/12/06 01:41:48;;;;;;;122.93;50.53;;;3.20;1.00;;;;;;6381142;22;20167;-86
2023/12/06 01:44:13;;;;;;;134.52;53.05;;;3.20;1.00;;;;;;6381972;22;20147;-86
2023/12/06 01:46:39;;;;;;;136.83;49.87;;;3.20;1.00;;;;;;6354203;22;20165;-86
2023/12/06 01:49:08;;;;;;;116.90;49.67;;;3.20;1.00;;;;;;6381583;22;20167;-86
2023/12/06 01:51:33;;;;;;;115.32;49.13;;;3.20;1.00;;;;;;6382077;22;20230;-86
2023/12/06 01:53:59;;;;;;;117.67;48.27;;;3.20;1.00;;;;;;6381177;22;20572;-84
2023/12/06 01:56:25;;;;;;;116.07;46.00;;;3.20;1.00;;;;;;6377291;22;20373;-83
2023/12/06 01:58:51;;;;;;;123.10;48.30;;;3.20;1.00;;;;;;6346146;22;20245;-84
2023/12/06 02:01:16;;;;;;;109.30;48.17;;;3.20;1.00;;;;;;6345055;22;20495;-83
2023/12/06 02:03:42;;;;;;;107.93;50.43;;;3.20;1.00;;;;;;6374538;22;20377;-83
2023/12/06 02:06:08;;;;;;;94.00;49.90;;;3.20;1.00;;;;;;6375071;22;20594;-85
2023/12/06 02:08:35;;;;;;;105.90;47.87;;;3.20;1.00;;;;;;6374135;22;20162;-84
2023/12/06 02:11:01;;;;;;;104.10;46.20;;;3.20;1.00;;;;;;6374239;22;20372;-84
2023/12/06 02:13:28;;;;;;;96.80;43.93;;;3.20;1.00;;;;;;6374863;22;20162;-84
2023/12/06 02:15:54;;;;;;;101.40;45.28;;;3.20;1.00;;;;;;6375982;22;20151;-84
2023/12/06 02:18:21;;;;;;;98.93;46.55;;;3.20;1.00;;;;;;6374218;22;20574;-85
2023/12/06 02:20:47;;;;;;;87.10;43.30;;;3.20;1.00;;;;;;6374418;22;20218;-84
2023/12/06 02:23:14;;;;;;;92.13;42.93;;;3.20;1.00;;;;;;6374335;22;20553;-85
2023/12/06 02:25:39;;;;;;;92.90;42.40;;;3.20;1.00;;;;;;6347445;22;20393;-85
2023/12/06 02:28:05;;;;;;;99.23;43.33;;;3.30;1.00;;;;;;6372770;22;20166;-85
2023/12/06 02:30:30;;;;;;;93.87;51.30;;;3.30;1.00;;;;;;6373405;22;20545;-84
2023/12/06 02:32:56;;;;;;;87.10;42.97;;;3.20;1.00;;;;;;6373996;22;20269;-84
2023/12/06 02:35:28;;;;;;;88.00;47.00;;;3.30;1.00;;;;;;6375726;22;20165;-82
2023/12/06 02:37:56;;;;;;;99.07;44.97;;;3.20;1.00;;;;;;6373099;22;20178;-84
2023/12/06 02:40:25;;;;;;;94.47;48.55;;;3.20;1.00;;;;;;6341956;22;20591;-84
2023/12/06 02:42:50;;;;;;;90.15;46.92;;;3.20;1.00;;;;;;6372512;22;20157;-84
2023/12/06 02:45:16;;;;;;;102.27;46.00;;;3.20;1.00;;;;;;6375690;22;20147;-85
2023/12/06 02:47:41;;;;;;;94.90;44.03;;;3.10;1.00;;;;;;6376682;22;20162;-84
2023/12/06 02:50:07;;;;;;;93.80;43.13;;;3.20;1.00;;;;;;6375366;22;20155;-83
2023/12/06 02:52:33;;;;;;;90.97;44.70;;;3.20;1.00;;;;;;6373174;22;20155;-84
2023/12/06 02:54:58;;;;;;;93.83;43.70;;;3.20;1.00;;;;;;6373301;22;20377;-84
2023/12/06 02:57:24;;;;;;;95.07;40.50;;;3.20;1.00;;;;;;6375980;22;20185;-85
2023/12/06 02:59:50;;;;;;;90.33;40.57;;;3.20;1.00;;;;;;6345216;22;20209;-85
2023/12/06 03:02:15;;;;;;;97.03;40.73;;;3.20;1.00;;;;;;6373545;22;20146;-86
2023/12/06 03:04:40;;;;;;;92.07;44.80;;;3.20;1.00;;;;;;6374777;22;20146;-85
2023/12/06 03:07:06;;;;;;;110.00;42.93;;;3.30;1.00;;;;;;6375217;22;20146;-85
2023/12/06 03:09:31;;;;;;;91.90;44.63;;;3.30;1.00;;;;;;6375278;22;20176;-85
2023/12/06 03:11:57;;;;;;;97.97;44.63;;;3.30;1.00;;;;;;6346432;22;20236;-85
2023/12/06 03:14:23;;;;;;;92.87;42.07;;;3.20;1.00;;;;;;6347450;22;20170;-85
2023/12/06 03:16:48;;;;;;;90.67;42.70;;;3.20;1.00;;;;;;6347812;22;20158;-82
2023/12/06 03:19:14;;;;;;;97.57;43.53;;;3.20;1.00;;;;;;6347163;22;20445;-83
2023/12/06 03:21:40;;;;;;;81.87;41.30;;;3.30;1.00;;;;;;6374701;22;20369;-85
2023/12/06 03:24:06;;;;;;;99.93;44.00;;;3.30;1.00;;;;;;6375445;22;20143;-82
2023/12/06 03:26:31;;;;;;;88.95;40.45;;;3.30;1.00;;;;;;6374317;22;20151;-85
2023/12/06 03:28:57;;;;;;;82.47;41.27;;;3.30;1.00;;;;;;6375241;22;20178;-85
2023/12/06 03:31:22;;;;;;;92.17;36.20;;;3.40;1.00;;;;;;6374536;22;20840;-84
2023/12/06 03:33:48;;;;;;;90.20;40.70;;;3.40;1.00;;;;;;6375654;22;20158;-85
2023/12/06 03:36:14;;;;;;;93.87;41.87;;;3.40;1.00;;;;;;6377381;22;20165;-86
2023/12/06 03:38:40;;;;;;;92.73;39.13;;;3.50;1.00;;;;;;6377904;22;20246;-85
2023/12/06 03:41:06;;;;;;;95.60;39.25;;;3.50;1.00;;;;;;6376845;22;20153;-85
2023/12/06 03:43:31;;;;;;;82.13;37.23;;;3.60;1.00;;;;;;6378358;22;20166;-85
2023/12/06 03:45:57;;;;;;;77.83;33.67;;;3.60;1.00;;;;;;6377803;22;20375;-85
2023/12/06 03:48:22;;;;;;;82.03;36.77;;;3.60;1.00;;;;;;6349271;22;20250;-85
2023/12/06 03:50:48;;;;;;;82.27;39.67;;;3.60;1.00;;;;;;6375628;22;20193;-85
2023/12/06 03:53:13;;;;;;;79.67;37.50;;;3.60;1.00;;;;;;6375512;22;20153;-85
2023/12/06 03:55:39;;;;;;;66.40;35.03;;;3.60;1.00;;;;;;6345847;22;20182;-85
2023/12/06 03:58:06;;;;;;;77.55;36.50;;;3.60;1.00;;;;;;6374457;22;20170;-85
2023/12/06 04:00:31;;;;;;;73.55;35.15;;;3.60;1.00;;;;;;6374859;22;20167;-85
2023/12/06 04:02:57;;;;;;;72.37;36.10;;;3.60;1.00;;;;;;6375538;22;20154;-84
2023/12/06 04:05:23;;;;;;;71.67;35.97;;;3.70;1.00;;;;;;6374450;22;20602;-84
2023/12/06 04:07:48;;;;;;;63.67;34.90;;;3.70;1.00;;;;;;6374203;22;20167;-85
2023/12/06 04:10:14;;;;;;;73.07;36.07;;;3.70;1.00;;;;;;6375464;22;20408;-85
2023/12/06 04:12:40;;;;;;;76.73;36.10;;;3.70;1.00;;;;;;6373849;22;20159;-85
2023/12/06 04:15:06;;;;;;;64.63;33.63;;;3.80;1.00;;;;;;6373468;22;20147;-82
2023/12/06 04:17:31;;;;;;;66.78;33.75;;;3.80;1.00;;;;;;6372773;22;20166;-83
2023/12/06 04:19:57;;;;;;;71.30;34.90;;;3.80;1.00;;;;;;6345600;22;20226;-82
2023/12/06 04:22:23;;;;;;;62.73;34.00;;;3.80;1.00;;;;;;6373305;22;20142;-85
2023/12/06 04:24:48;;;;;;;71.17;35.87;;;3.80;1.00;;;;;;6373290;22;20154;-84
2023/12/06 04:27:14;;;;;;;64.37;31.67;;;3.90;1.00;;;;;;6372304;22;20560;-85
2023/12/06 04:29:40;;;;;;;54.70;31.57;;;3.90;1.00;;;;;;6373295;22;20221;-83
2023/12/06 04:32:05;;;;;;;63.40;34.30;;;3.90;1.00;;;;;;6373889;22;20385;-83
2023/12/06 04:34:33;;;;;;;55.77;32.77;;;3.90;1.00;;;;;;6344684;22;20732;-85
2023/12/06 04:36:58;;;;;;;62.13;34.50;;;3.90;1.00;;;;;;6345973;22;20173;-85
2023/12/06 04:39:24;;;;;;;47.70;28.97;;;3.80;1.00;;;;;;6373049;22;20579;-84
2023/12/06 04:41:50;;;;;;;56.87;32.50;;;3.80;1.00;;;;;;6371982;22;20586;-83
2023/12/06 04:44:15;;;;;;;51.50;30.50;;;3.90;1.00;;;;;;6373228;22;20169;-85
2023/12/06 04:46:41;;;;;;;54.43;29.30;;;3.90;1.00;;;;;;6373257;22;20207;-84
2023/12/06 04:49:06;;;;;;;49.97;33.13;;;3.90;1.00;;;;;;6373640;22;20174;-84
2023/12/06 04:51:32;;;;;;;55.60;32.07;;;3.90;1.00;;;;;;6374621;22;20147;-83
2023/12/06 04:53:57;;;;;;;56.93;31.63;;;3.90;1.00;;;;;;6374222;22;20157;-86
2023/12/06 04:56:23;;;;;;;52.33;30.47;;;3.90;1.00;;;;;;6373992;22;20295;-84
2023/12/06 04:58:48;;;;;;;53.17;33.97;;;4.00;1.00;;;;;;6373656;22;20231;-84
2023/12/06 05:01:14;;;;;;;48.20;29.57;;;4.00;1.00;;;;;;6374596;22;20143;-82
2023/12/06 05:03:39;;;;;;;52.37;31.10;;;4.00;1.00;;;;;;6374626;22;20169;-84
2023/12/06 05:06:05;;;;;;;50.63;31.27;;;4.00;1.00;;;;;;6373553;22;20189;-83
2023/12/06 05:08:30;;;;;;;54.87;30.70;;;4.00;1.00;;;;;;6373336;22;20165;-85
2023/12/06 05:10:56;;;;;;;52.60;32.37;;;4.00;1.00;;;;;;6373865;22;20169;-85
2023/12/06 05:13:21;;;;;;;54.93;33.30;;;4.00;1.00;;;;;;6373379;22;20690;-83
2023/12/06 05:15:47;;;;;;;51.03;32.47;;;4.00;1.00;;;;;;6375010;22;20416;-85
2023/12/06 05:18:12;;;;;;;52.47;30.80;;;4.00;1.00;;;;;;6348478;22;20248;-84
2023/12/06 05:20:38;;;;;;;49.40;31.30;;;4.10;1.00;;;;;;6376373;22;20182;-85
2023/12/06 05:23:03;;;;;;;52.17;32.23;;;4.10;1.00;;;;;;6375948;22;20150;-83
2023/12/06 05:25:29;;;;;;;55.43;33.20;;;4.10;1.00;;;;;;6375619;22;20150;-85
2023/12/06 05:27:54;;;;;;;51.90;32.43;;;4.10;1.00;;;;;;6374591;22;20167;-85
2023/12/06 05:30:20;;;;;;;54.20;33.73;;;4.10;1.00;;;;;;6372969;22;20214;-85
2023/12/06 05:32:45;;;;;;;51.97;32.10;;;4.10;1.00;;;;;;6344924;22;20624;-85
2023/12/06 05:35:11;;;;;;;54.90;31.07;;;4.10;1.00;;;;;;6373078;22;20154;-84
2023/12/06 05:37:36;;;;;;;50.37;30.10;;;4.10;1.00;;;;;;6373249;22;20171;-85
2023/12/06 05:40:03;;;;;;;50.47;29.47;;;4.10;1.00;;;;;;6373946;22;20199;-85
2023/12/06 05:42:29;;;;;;;56.70;31.02;;;4.10;1.00;;;;;;6373504;22;20171;-85
2023/12/06 05:44:54;;;;;;;51.00;30.93;;;4.10;1.00;;;;;;6373137;22;20154;-82
2023/12/06 05:47:20;;;;;;;50.43;31.93;;;4.10;1.00;;;;;;6372055;22;20146;-84
2023/12/06 05:49:45;;;;;;;46.30;29.70;;;4.10;1.00;;;;;;6342586;22;20218;-82
2023/12/06 05:52:11;;;;;;;49.37;30.23;;;4.10;1.00;;;;;;6373012;22;20475;-85
2023/12/06 05:54:36;;;;;;;48.47;29.80;;;4.10;1.00;;;;;;6373708;22;20161;-84
2023/12/06 05:57:03;;;;;;;46.80;30.13;;;4.20;1.00;;;;;;6374340;22;20155;-83
2023/12/06 05:59:28;;;;;;;49.83;32.60;;;4.20;1.00;;;;;;6373373;22;20186;-84
2023/12/06 06:01:54;;;;;;;48.67;30.73;;;4.20;1.00;;;;;;6373320;22;20147;-82
2023/12/06 06:04:19;;;;;;;50.43;30.37;;;4.20;1.00;;;;;;6371676;22;20172;-83
2023/12/06 06:06:45;;;;;;;46.10;29.60;;;4.20;1.00;;;;;;6375003;22;20139;-85
2023/12/06 06:09:10;;;;;;;49.67;30.47;;;4.20;1.00;;;;;;6373787;22;20167;-85
2023/12/06 06:11:36;;;;;;;49.77;28.13;;;4.20;1.00;;;;;;6373564;22;20555;-84
2023/12/06 06:14:01;;;;;;;43.27;27.90;;;4.20;1.00;;;;;;6373558;22;20168;-84
2023/12/06 06:16:27;;;;;;;45.27;28.07;;;4.20;1.00;;;;;;6373315;22;20179;-84
2023/12/06 06:18:52;;;;;;;48.40;29.20;;;4.20;1.00;;;;;;6372856;22;20186;-84
2023/12/06 06:21:19;;;;;;;41.40;27.97;;;4.30;1.00;;;;;;6374095;22;20139;-85
2023/12/06 06:23:45;;;;;;;42.97;29.50;;;4.30;1.00;;;;;;6375986;22;20578;-85
2023/12/06 06:26:11;;;;;;;42.08;27.00;;;4.30;1.00;;;;;;6348027;22;20154;-84
2023/12/06 06:28:37;;;;;;;51.50;29.50;;;4.20;1.00;;;;;;6376547;22;20167;-84
2023/12/06 06:31:03;;;;;;;40.10;26.90;;;4.30;1.00;;;;;;6374480;22;20238;-85
2023/12/06 06:33:29;;;;;;;41.63;26.65;;;4.30;1.00;;;;;;6373789;22;20151;-85
2023/12/06 06:35:55;;;;;;;45.77;29.50;;;4.30;1.00;;;;;;6346624;22;20174;-85
2023/12/06 06:38:20;;;;;;;42.23;27.90;;;4.30;1.00;;;;;;6372252;22;20163;-84
2023/12/06 06:40:46;;;;;;;42.93;28.10;;;4.30;1.00;;;;;;6374578;22;20249;-82
2023/12/06 06:43:11;;;;;;;42.33;26.37;;;4.30;1.00;;;;;;6375405;22;20143;-82
2023/12/06 06:45:37;;;;;;;48.90;27.03;;;4.30;1.00;;;;;;6376678;22;20140;-85
2023/12/06 06:48:03;;;;;;;41.80;27.10;;;4.40;1.00;;;;;;6376116;22;20197;-85
2023/12/06 06:50:28;;;;;;;39.13;26.60;;;4.30;1.00;;;;;;6372786;22;20797;-83
2023/12/06 06:52:54;;;;;;;40.90;25.87;;;4.40;1.00;;;;;;6372516;22;20202;-85
2023/12/06 06:55:20;;;;;;;41.70;27.37;;;4.40;1.00;;;;;;6374384;22;20170;-84
2023/12/06 06:57:45;;;;;;;39.93;25.67;;;4.40;1.00;;;;;;6375828;22;20174;-83
2023/12/06 07:00:13;;;;;;;42.90;28.27;;;4.40;1.00;;;;;;6344846;22;20186;-83
2023/12/06 07:02:38;;;;;;;45.75;27.88;;;4.40;1.00;;;;;;6344828;22;20170;-85
2023/12/06 07:05:06;;;;;;;40.87;27.60;;;4.40;1.00;;;;;;6371542;22;20164;-84
2023/12/06 07:07:31;;;;;;;41.65;26.75;;;4.40;1.00;;;;;;6345314;22;20234;-84
2023/12/06 07:09:57;;;;;;;38.23;25.60;;;4.40;1.00;;;;;;6347282;22;20154;-84
2023/12/06 07:12:22;;;;;;;39.27;27.00;;;4.40;1.00;;;;;;6345704;22;20176;-83
2023/12/06 07:14:48;;;;;;;40.60;27.80;;;4.40;1.00;;;;;;6373441;22;20225;-83
2023/12/06 07:17:13;;;;;;;39.87;27.77;;;4.50;1.00;;;;;;6371087;22;20170;-84
2023/12/06 07:19:39;;;;;;;40.60;27.20;;;4.50;1.00;;;;;;6371810;22;20178;-83
2023/12/06 07:22:06;;;;;;;40.07;26.10;;;4.70;1.00;;;;;;6369412;22;20259;-82
2023/12/06 07:24:31;;;;;;;38.47;25.63;;;4.70;1.00;;;;;;6370207;22;20143;-81
2023/12/06 07:26:57;;;;;;;37.23;25.40;;;4.80;1.00;;;;;;6370606;22;20171;-81
2023/12/06 07:29:23;;;;;;;39.70;25.90;;;4.80;1.00;;;;;;6370331;22;20570;-82
2023/12/06 07:31:50;;;;;;;41.67;26.10;;;4.80;1.00;;;;;;6368831;22;20641;-83
2023/12/06 07:34:18;;;;;;;44.72;27.30;;;4.80;1.00;;;;;;6343784;22;20159;-83
2023/12/06 07:36:45;;;;;;;43.97;26.02;;;4.90;1.00;;;;;;6343999;22;20165;-83
2023/12/06 07:39:11;;;;;;;44.60;26.90;;;4.80;1.00;;;;;;6344014;22;20669;-84
2023/12/06 07:41:36;;;;;;;43.60;27.83;;;4.80;1.00;;;;;;6373171;22;20150;-84
2023/12/06 07:44:02;;;;;;;43.97;29.43;;;4.80;1.00;;;;;;6373639;22;20908;-83
2023/12/06 07:46:27;;;;;;;40.37;27.77;;;4.80;1.00;;;;;;6372393;22;20594;-83
2023/12/06 07:48:53;;;;;;;43.20;28.40;;;4.80;1.00;;;;;;6370862;22;20437;-83
2023/12/06 07:51:18;;;;;;;48.40;29.40;;;4.80;1.00;;;;;;6344244;22;20276;-83
2023/12/06 07:53:44;;;;;;;48.17;30.00;;;4.90;1.00;;;;;;6371907;22;20170;-86
2023/12/06 07:56:09;;;;;;;48.80;29.90;;;4.90;1.00;;;;;;6374204;22;20155;-85
2023/12/06 07:58:35;;;;;;;42.63;27.80;;;4.90;1.00;;;;;;6370836;22;20171;-82
2023/12/06 08:01:00;;;;;;;39.47;26.90;;;4.90;1.00;;;;;;6341888;22;20151;-83
2023/12/06 08:03:31;;;;;;;42.37;27.10;;;4.90;1.00;;;;;;6343067;22;20159;-83
2023/12/06 08:05:59;;;;;;;40.42;26.73;;;4.90;1.00;;;;;;6341064;22;20159;-83
2023/12/06 08:08:28;;;;;;;43.47;27.95;;;4.90;1.00;;;;;;6371937;22;20684;-83
2023/12/06 08:10:55;;;;;;;40.28;25.65;;;5.00;1.00;;;;;;6344812;22;20155;-83
2023/12/06 08:13:21;;;;;;;44.55;27.70;;;5.00;1.00;;;;;;6347960;22;20162;-83
2023/12/06 08:15:46;;;;;;;45.47;29.20;;;5.00;1.00;;;;;;6345726;22;20769;-84
2023/12/06 08:18:12;;;;;;;38.33;27.57;;;5.00;1.00;;;;;;6370967;22;20167;-84
2023/12/06 08:20:37;;;;;;;41.53;27.60;;;5.00;1.00;;;;;;6373374;22;20193;-85
2023/12/06 08:23:06;;;;;;;47.60;29.30;;;5.00;1.00;;;;;;6372402;22;20173;-84
2023/12/06 08:25:32;;;;;;;45.88;27.55;;;5.10;1.00;;;;;;6369683;22;20175;-84
2023/12/06 08:27:57;;;;;;;45.43;28.43;;;5.10;1.00;;;;;;6369257;22;20174;-85
2023/12/06 08:30:23;;;;;;;46.67;27.50;;;5.10;1.00;;;;;;6367555;22;20629;-85
2023/12/06 08:32:48;;;;;;;44.10;27.77;;;5.10;1.00;;;;;;6367330;22;20159;-82
2023/12/06 08:35:14;;;;;;;46.37;29.57;;;5.10;1.00;;;;;;6365254;22;20237;-84
2023/12/06 08:37:40;;;;;;;42.93;26.87;;;5.20;1.00;;;;;;6365717;22;20181;-83
2023/12/06 08:40:08;;;;;;;40.65;27.02;;;5.20;1.00;;;;;;6341317;22;20182;-82
2023/12/06 08:42:34;;;;;;;38.55;26.27;;;5.20;1.00;;;;;;6366701;22;20143;-82
2023/12/06 08:44:59;;;;;;;49.57;25.53;;;5.20;1.00;;;;;;6365561;22;20218;-86
2023/12/06 08:47:25;;;;;;;40.30;26.63;;;5.20;1.00;;;;;;6340012;22;20275;-83
2023/12/06 08:49:50;;;;;;;37.97;25.20;;;5.20;1.00;;;;;;6368214;22;20185;-83
2023/12/06 08:52:16;;;;;;;37.73;25.00;;;5.30;1.00;;;;;;6368096;22;20166;-85
2023/12/06 08:54:42;;;;;;;41.57;26.17;;;5.30;1.00;;;;;;6363522;22;20150;-84
2023/12/06 08:57:07;;;;;;;40.23;25.93;;;5.30;1.00;;;;;;6362860;22;20177;-83
2023/12/06 08:59:33;;;;;;;42.87;26.40;;;5.30;1.00;;;;;;6338722;22;20341;-83
2023/12/06 09:01:58;;;;;;;42.07;24.87;;;5.30;1.00;;;;;;6368220;22;20150;-85
2023/12/06 09:04:24;;;;;;;38.40;26.97;;;5.30;1.00;;;;;;6369501;22;20146;-85
2023/12/06 09:06:49;;;;;;;35.83;23.90;;;5.40;1.00;;;;;;6367323;22;20174;-85
2023/12/06 09:09:18;;;;;;;42.90;26.17;;;5.40;1.00;;;;;;6371612;22;20833;-86
2023/12/06 09:11:45;;;;;;;38.63;24.67;;;5.40;1.00;;;;;;6368794;22;20548;-85
2023/12/06 09:14:10;;;;;;;41.13;25.80;;;5.50;1.00;;;;;;6367690;22;20147;-85
2023/12/06 09:16:36;;;;;;;37.77;23.90;;;5.50;1.00;;;;;;6340652;22;20163;-84
2023/12/06 09:19:03;;;;;;;35.37;24.13;;;5.60;1.00;;;;;;6368780;22;20189;-83
2023/12/06 09:21:43;;;;;;;36.28;23.95;;;5.60;1.00;;;;;;6339605;22;20158;-83
2023/12/06 09:24:13;;;;;;;35.95;23.40;;;5.60;1.00;;;;;;6367451;22;20154;-85
2023/12/06 09:26:39;;;;;;;34.25;23.08;;;5.70;1.00;;;;;;6338962;22;20154;-85
2023/12/06 09:29:09;;;;;;;34.15;23.27;;;5.90;1.00;;;;;;6339677;22;20615;-85
2023/12/06 09:31:35;;;;;;;34.58;23.00;;;6.20;1.00;;;;;;6341879;22;20159;-85
2023/12/06 09:34:02;;;;;;;30.73;21.63;;;6.50;1.00;;;;;;6368772;22;20157;-86
2023/12/06 09:36:28;;;;;;;28.07;20.47;;;6.60;1.00;;;;;;6369134;22;20147;-84
2023/12/06 09:38:59;;;;;;;31.17;20.73;;;6.80;1.00;;;;;;6368477;22;20754;-85
2023/12/06 09:41:28;;;;;;;34.78;21.95;;;6.90;99.90;;;;;;6368590;22;20142;-85
2023/12/06 09:43:54;;;;;;;33.20;21.97;;;7.20;99.90;;;;;;6369012;22;20142;-85
2023/12/06 09:46:19;;;;;;;33.33;22.17;;;7.30;99.90;;;;;;6339563;22;20383;-83
2023/12/06 09:48:47;;;;;;;30.00;20.37;;;7.50;1.00;;;;;;6338760;22;20171;-85
2023/12/06 09:51:12;;;;;;;27.23;19.90;;;7.80;99.90;;;;;;6336913;22;20203;-85
2023/12/06 09:53:38;;;;;;;36.47;20.33;;;8.20;1.00;;;;;;6338718;22;20864;-86
2023/12/06 09:56:04;;;;;;;27.30;18.83;;;8.50;99.90;;;;;;6368097;22;20373;-83
2023/12/06 09:58:30;;;;;;;26.60;19.17;;;8.90;99.90;;;;;;6368963;22;20366;-85
2023/12/06 10:00:57;;;;;;;26.77;19.20;;;9.20;99.90;;;;;;6339340;22;20455;-86
2023/12/06 10:03:23;;;;;;;27.37;18.43;;;9.10;99.90;;;;;;6367081;22;20418;-84
2023/12/06 10:05:59;;;;;;;24.30;18.07;;;8.90;1.00;;;;;;6365650;22;20369;-85
2023/12/06 10:08:25;;;;;;;28.60;18.67;;;8.70;1.00;;;;;;6365014;22;20162;-86
2023/12/06 10:11:12;;;;;;;23.30;18.03;;;8.50;99.90;;;;;;6366167;22;20438;-83
2023/12/06 10:13:40;;;;;;;23.67;16.60;;;8.40;1.00;;;;;;6363827;22;20380;-84
2023/12/06 10:16:17;;;;;;;27.50;18.13;;;8.40;99.90;;;;;;6367704;22;20377;-85
2023/12/06 10:18:52;;;;;;;26.00;17.30;;;8.40;1.00;;;;;;6366228;22;20420;-83
2023/12/06 10:21:19;;;;;;;26.73;18.20;;;8.10;1.00;;;;;;6337361;22;20376;-86
2023/12/06 10:23:59;;;;;;;28.00;19.87;;;8.00;1.00;;;;;;6365876;22;20450;-84
2023/12/06 10:26:29;;;;;;;28.92;19.73;;;8.00;1.00;;;;;;6364507;22;20375;-83
2023/12/06 10:28:54;;;;;;;30.20;20.27;;;7.90;1.00;;;;;;6335580;22;20513;-84
2023/12/06 10:31:20;;;;;;;29.50;19.53;;;7.80;1.00;;;;;;6364537;22;20375;-85
2023/12/06 10:33:56;;;;;;;23.47;17.80;;;7.80;99.90;;;;;;6365110;22;20169;-85
2023/12/06 10:36:24;;;;;;;26.63;18.90;;;7.80;99.90;;;;;;6367008;22;20142;-84
2023/12/06 10:38:51;;;;;;;29.93;17.93;;;7.80;99.90;;;;;;6365363;22;20393;-86
2023/12/06 10:41:20;;;;;;;27.47;19.23;;;7.80;99.90;;;;;;6366606;22;20377;-85
2023/12/06 10:43:47;;;;;;;32.27;18.83;;;7.80;1.00;;;;;;6365588;22;20365;-85
2023/12/06 10:46:15;;;;;;;32.13;20.80;;;7.80;22.70;;;;;;6338378;22;20388;-85
2023/12/06 10:48:42;;;;;;;26.58;19.90;;;7.80;1.00;;;;;;6366627;22;20393;-85
2023/12/06 10:51:09;;;;;;;27.37;19.40;;;7.90;1.00;;;;;;6366364;22;20155;-86
2023/12/06 10:53:38;;;;;;;31.40;19.40;;;8.10;99.90;;;;;;6363221;22;20498;-82
2023/12/06 10:56:04;;;;;;;26.40;18.40;;;8.20;99.90;;;;;;6364769;22;20373;-85
2023/12/06 10:58:29;;;;;;;26.60;18.40;;;8.30;1.00;;;;;;6336287;22;20440;-83
2023/12/06 11:00:58;;;;;;;23.70;16.93;;;8.40;99.90;;;;;;6336644;22;20819;-82
2023/12/06 11:03:23;;;;;;;27.10;17.63;;;8.50;1.00;;;;;;6364923;22;20147;-86
2023/12/06 11:05:55;;;;;;;26.30;17.37;;;8.70;99.90;;;;;;6335643;22;20373;-85
2023/12/06 11:08:23;;;;;;;23.43;16.43;;;8.90;84.80;;;;;;6341235;22;20261;-83
2023/12/06 11:11:13;;;;;;;23.80;15.63;;;9.10;1.00;;;;;;6340428;22;20903;-85
2023/12/06 11:13:58;;;;;;;26.00;15.97;;;9.30;1.00;;;;;;6341183;22;20953;-85
2023/12/06 11:16:39;;;;;;;24.03;16.03;;;9.60;1.00;;;;;;6367393;22;20361;-84
2023/12/06 11:19:05;;;;;;;18.53;13.90;;;10.00;1.00;;;;;;6367265;22;20942;-85
2023/12/06 11:21:31;;;;;;;19.77;15.40;;;10.80;99.90;;;;;;6366216;22;20391;-85
2023/12/06 11:23:57;;;;;;;22.03;14.13;;;11.90;9.80;;;;;;6366996;22;20365;-86
2023/12/06 11:26:23;;;;;;;18.93;13.73;;;12.60;1.00;;;;;;6369024;22;20392;-86
2023/12/06 11:28:50;;;;;;;22.30;14.27;;;13.30;1.00;;;;;;6367995;22;20397;-86
2023/12/06 11:31:17;;;;;;;18.60;13.57;;;14.00;1.00;;;;;;6338269;22;20159;-84
2023/12/06 11:33:56;;;;;;;15.13;13.00;;;14.30;1.00;;;;;;6369977;22;20691;-85
2023/12/06 11:36:24;;;;;;;17.97;13.70;;;14.70;99.90;;;;;;6370395;22;20422;-84
2023/12/06 11:38:50;;;;;;;16.97;13.60;;;15.10;99.90;;;;;;6369484;22;20395;-86
2023/12/06 11:41:16;;;;;;;18.83;13.50;;;15.20;99.90;;;;;;6371431;22;20652;-86
2023/12/06 11:43:50;;;;;;;17.40;13.60;;;14.90;99.90;;;;;;6344656;22;20381;-86
2023/12/06 11:46:16;;;;;;;17.30;14.07;;;14.50;99.90;;;;;;6371963;22;20901;-86
2023/12/06 11:48:45;;;;;;;21.27;13.90;;;14.50;99.90;;;;;;6344683;22;20426;-86
2023/12/06 11:51:25;;;;;;;19.00;13.97;;;14.20;99.90;;;;;;6344609;22;20488;-85
2023/12/06 11:53:51;;;;;;;19.93;13.87;;;13.60;99.90;;;;;;6371612;22;20345;-84
2023/12/06 11:56:21;;;;;;;18.83;13.40;;;12.80;99.90;;;;;;6345178;22;20380;-84
2023/12/06 11:58:49;;;;;;;19.80;12.90;;;12.50;99.90;;;;;;6345914;22;20404;-83
2023/12/06 12:01:15;;;;;;;18.60;13.10;;;12.70;99.90;;;;;;6344810;22;20381;-85
2023/12/06 12:03:41;;;;;;;19.67;13.40;;;13.30;99.90;;;;;;6372168;22;20679;-86
2023/12/06 12:06:08;;;;;;;17.27;12.67;;;13.50;99.90;;;;;;6347600;22;20155;-85
2023/12/06 12:08:34;;;;;;;20.07;13.73;;;13.90;99.90;;;;;;6346642;22;20175;-86
2023/12/06 12:11:00;;;;;;;16.53;11.60;;;14.30;99.90;;;;;;6372053;22;20400;-85
2023/12/06 12:13:26;;;;;;;15.60;11.40;;;14.60;99.90;;;;;;6371228;22;20380;-86
2023/12/06 12:15:57;;;;;;;14.47;12.23;;;15.10;99.90;;;;;;6372773;22;20155;-85
2023/12/06 12:18:24;;;;;;;15.03;12.47;;;15.60;99.90;;;;;;6373649;22;20749;-87
2023/12/06 12:20:50;;;;;;;16.33;11.67;;;15.50;99.90;;;;;;6372169;22;20427;-86
2023/12/06 12:23:15;;;;;;;20.20;12.90;;;15.40;99.90;;;;;;6372387;22;20396;-85
2023/12/06 12:25:51;;;;;;;18.50;13.67;;;14.70;99.90;;;;;;6344269;22;20158;-86
2023/12/06 12:28:21;;;;;;;17.53;13.50;;;14.40;99.90;;;;;;6344001;22;20396;-85
2023/12/06 12:30:58;;;;;;;15.33;12.30;;;14.00;99.90;;;;;;6370861;22;20380;-84
2023/12/06 12:33:24;;;;;;;17.07;11.90;;;13.70;99.90;;;;;;6343673;22;20852;-86
2023/12/06 12:35:50;;;;;;;19.57;11.67;;;13.40;99.90;;;;;;6371539;22;20895;-85
2023/12/06 12:38:17;;;;;;;14.80;11.57;;;13.10;99.90;;;;;;6371520;22;20396;-86
2023/12/06 12:40:43;;;;;;;13.50;9.93;;;12.70;99.90;;;;;;6370759;22;20413;-85